createdAt,value
2023-05-20T00:02:54.231Z,13.15
2023-05-20T00:11:17.255Z,13.11
2023-05-20T00:19:40.164Z,13.15
2023-05-20T00:28:03.096Z,13.10
2023-05-20T00:36:26.023Z,13.13
2023-05-20T00:44:49.578Z,13.15
2023-05-20T00:53:12.947Z,13.14
2023-05-20T01:01:36.061Z,13.16
2023-05-20T01:09:59.884Z,13.19
2023-05-20T01:18:25.614Z,13.10
2023-05-20T01:26:50.433Z,13.08
2023-05-20T01:35:15.057Z,13.04
2023-05-20T01:43:39.801Z,13.01
2023-05-20T01:52:03.423Z,13.07
2023-05-20T02:00:26.832Z,13.11
2023-05-20T02:08:49.976Z,13.02
2023-05-20T02:17:17.810Z,13.00
2023-05-20T02:25:41.231Z,12.95
2023-05-20T02:34:06.477Z,12.88
2023-05-20T02:42:29.768Z,12.96
2023-05-20T02:50:53.194Z,13.08
2023-05-20T02:59:16.223Z,13.08
2023-05-20T03:07:39.146Z,13.18
2023-05-20T03:16:02.861Z,13.21
2023-05-20T03:24:27.257Z,13.17
2023-05-20T03:32:50.667Z,13.26
2023-05-20T03:41:13.854Z,13.37
2023-05-20T03:49:37.124Z,13.50
2023-05-20T03:58:01.410Z,13.68
2023-05-20T04:06:24.801Z,13.79
2023-05-20T04:14:50.154Z,13.84
2023-05-20T04:23:13.654Z,14.00
2023-05-20T04:31:38.574Z,14.20
2023-05-20T04:40:03.347Z,14.32
2023-05-20T04:48:27.082Z,14.60
2023-05-20T04:56:51.097Z,14.87
2023-05-20T05:05:14.268Z,15.04
2023-05-20T05:13:37.528Z,15.32
2023-05-20T05:22:00.698Z,15.59
2023-05-20T05:30:25.291Z,15.66
2023-05-20T05:38:48.457Z,15.75
2023-05-20T05:47:11.718Z,15.91
2023-05-20T05:55:34.868Z,16.13
2023-05-20T06:03:58.203Z,16.52
2023-05-20T06:12:21.300Z,16.87
2023-05-20T06:20:44.669Z,17.06
2023-05-20T06:29:07.840Z,17.30
2023-05-20T06:37:31.243Z,17.81
2023-05-20T06:45:54.408Z,18.31
2023-05-20T06:54:25.138Z,18.66
2023-05-20T07:02:48.214Z,18.99
2023-05-20T07:11:11.212Z,19.29
2023-05-20T07:19:34.799Z,19.55
2023-05-20T07:28:00.483Z,19.88
2023-05-20T07:36:23.788Z,20.14
2023-05-20T07:44:47.777Z,20.30
2023-05-20T07:53:11.278Z,20.55
2023-05-20T08:01:35.006Z,20.89
2023-05-20T08:09:58.713Z,21.10
2023-05-20T08:18:23.528Z,21.49
2023-05-20T08:26:46.514Z,21.94
2023-05-20T08:35:10.727Z,22.29
2023-05-20T08:43:34.608Z,22.60
2023-05-20T08:52:00.925Z,22.73
2023-05-20T09:00:28.731Z,22.96
2023-05-20T09:08:52.721Z,23.31
2023-05-20T09:17:15.912Z,23.50
2023-05-20T09:25:38.935Z,23.68
2023-05-20T09:34:02.186Z,23.95
2023-05-20T09:42:34.388Z,24.43
2023-05-20T09:50:58.900Z,25.11
2023-05-20T09:59:22.136Z,25.57
2023-05-20T10:07:44.938Z,25.68
2023-05-20T10:16:27.122Z,25.95
2023-05-20T10:25:06.674Z,26.12
2023-05-20T10:33:30.379Z,26.16
2023-05-20T10:41:53.293Z,26.66
2023-05-20T10:50:28.059Z,26.93
2023-05-20T10:58:55.148Z,27.79
2023-05-20T11:07:31.547Z,28.92
2023-05-20T11:15:55.196Z,33.65
2023-05-20T11:24:28.437Z,37.56
2023-05-20T11:32:59.238Z,39.05
2023-05-20T11:41:26.503Z,40.65
2023-05-20T11:49:49.727Z,39.22
2023-05-20T11:58:16.259Z,38.34
2023-05-20T12:06:39.808Z,40.21
2023-05-20T12:15:06.402Z,38.38
2023-05-20T12:23:30.848Z,36.22
2023-05-20T12:31:53.835Z,36.26
2023-05-20T12:40:17.084Z,38.51
2023-05-20T12:48:41.913Z,35.34
2023-05-20T12:57:06.026Z,31.69
2023-05-20T13:05:29.130Z,30.31
2023-05-20T13:13:52.048Z,33.18
2023-05-20T13:22:15.102Z,35.14
2023-05-20T13:30:38.500Z,36.83
2023-05-20T13:39:01.628Z,36.21
2023-05-20T13:47:24.730Z,34.63
2023-05-20T13:55:47.761Z,33.18
2023-05-20T14:04:12.703Z,32.45
2023-05-20T14:12:35.614Z,33.06
2023-05-20T14:20:58.544Z,35.34
2023-05-20T14:29:21.652Z,35.65
2023-05-20T14:37:45.258Z,35.40
2023-05-20T14:46:09.875Z,35.02
2023-05-20T14:54:35.698Z,33.44
2023-05-20T15:02:58.804Z,33.28
2023-05-20T15:11:22.512Z,32.57
2023-05-20T15:19:45.427Z,31.25
2023-05-20T15:28:08.397Z,30.16
2023-05-20T15:36:31.493Z,29.31
2023-05-20T15:44:54.398Z,29.19
2023-05-20T15:53:17.278Z,30.33
2023-05-20T16:01:40.428Z,30.75
2023-05-20T16:10:03.780Z,30.53
2023-05-20T16:18:30.532Z,31.06
2023-05-20T16:26:54.086Z,31.75
2023-05-20T16:35:17.286Z,31.85
2023-05-20T16:43:40.761Z,31.66
2023-05-20T16:52:05.944Z,30.76
2023-05-20T17:00:29.290Z,29.88
2023-05-20T17:08:52.228Z,29.15
2023-05-20T17:17:15.668Z,28.67
2023-05-20T17:25:38.770Z,27.63
2023-05-20T17:34:01.954Z,26.54
2023-05-20T17:42:25.218Z,25.25
2023-05-20T17:50:48.895Z,24.01
2023-05-20T17:59:12.095Z,23.04
2023-05-20T18:07:36.458Z,22.17
2023-05-20T18:16:00.699Z,21.35
2023-05-20T18:24:23.930Z,20.61
2023-05-20T18:32:47.994Z,20.05
2023-05-20T18:41:13.204Z,19.57
2023-05-20T18:49:36.211Z,19.08
2023-05-20T18:57:59.348Z,18.64
2023-05-20T19:06:22.536Z,18.22
2023-05-20T19:14:46.634Z,17.89
2023-05-20T19:23:09.587Z,17.65
2023-05-20T19:31:32.487Z,17.43
2023-05-20T19:39:55.521Z,17.22
2023-05-20T19:48:20.028Z,16.99
2023-05-20T19:56:46.291Z,16.72
2023-05-20T20:05:09.950Z,16.48
2023-05-20T20:13:33.443Z,16.43
2023-05-20T20:21:56.775Z,16.41
2023-05-20T20:30:21.689Z,16.32
2023-05-20T20:38:46.828Z,16.15
2023-05-20T20:47:10.148Z,15.93
2023-05-20T20:55:34.435Z,15.67
2023-05-20T21:03:58.671Z,15.49
2023-05-20T21:12:21.934Z,15.44
2023-05-20T21:20:44.852Z,15.34
2023-05-20T21:29:10.008Z,15.17
2023-05-20T21:37:32.995Z,14.96
2023-05-20T21:45:56.279Z,14.78
2023-05-20T21:54:19.163Z,14.73
2023-05-20T22:02:42.135Z,14.64
2023-05-20T22:11:05.729Z,14.47
2023-05-20T22:19:30.607Z,14.32
2023-05-20T22:27:53.609Z,14.30
2023-05-20T22:36:16.600Z,14.21
2023-05-20T22:44:39.664Z,14.08
2023-05-20T22:53:03.025Z,13.91
2023-05-20T23:01:26.062Z,13.88
2023-05-20T23:09:49.095Z,13.77
2023-05-20T23:18:12.389Z,13.58
2023-05-20T23:26:37.691Z,13.41
2023-05-20T23:35:04.836Z,13.35
2023-05-20T23:43:27.718Z,13.25
2023-05-20T23:51:51.719Z,13.12
